createdAt,value
2022-11-17T00:01:57.064Z,16.90
2022-11-17T00:04:28.989Z,16.90
2022-11-17T00:06:56.927Z,16.90
2022-11-17T00:09:24.127Z,16.90
2022-11-17T00:12:09.814Z,16.90
2022-11-17T00:14:37.258Z,16.90
2022-11-17T00:17:07.281Z,16.90
2022-11-17T00:19:53.178Z,16.90
2022-11-17T00:22:20.393Z,16.90
2022-11-17T00:24:48.501Z,16.90
2022-11-17T00:27:15.910Z,16.90
2022-11-17T00:29:42.811Z,16.90
2022-11-17T00:32:32.875Z,16.80
2022-11-17T00:34:59.760Z,16.80
2022-11-17T00:37:27.624Z,16.80
2022-11-17T00:40:00.324Z,16.80
2022-11-17T00:42:27.752Z,16.80
2022-11-17T00:44:54.580Z,16.80
2022-11-17T00:47:21.486Z,16.70
2022-11-17T00:49:48.264Z,16.70
2022-11-17T00:52:15.564Z,16.70
2022-11-17T00:54:42.351Z,16.70
2022-11-17T00:57:09.107Z,16.70
2022-11-17T00:59:35.884Z,16.70
2022-11-17T01:02:02.668Z,16.70
2022-11-17T01:04:29.424Z,16.70
2022-11-17T01:06:56.260Z,16.70
2022-11-17T01:09:24.161Z,16.70
2022-11-17T01:11:52.690Z,16.70
2022-11-17T01:14:25.614Z,16.70
2022-11-17T01:16:53.637Z,16.70
2022-11-17T01:19:21.391Z,16.60
2022-11-17T01:21:48.308Z,16.60
2022-11-17T01:24:16.734Z,16.60
2022-11-17T01:26:45.661Z,16.60
2022-11-17T01:29:16.979Z,16.60
2022-11-17T01:31:45.154Z,16.60
2022-11-17T01:34:12.470Z,16.60
2022-11-17T01:37:00.787Z,16.60
2022-11-17T01:39:30.950Z,16.60
2022-11-17T01:42:02.148Z,16.60
2022-11-17T01:44:57.828Z,16.60
2022-11-17T01:47:41.876Z,16.60
2022-11-17T01:50:24.393Z,16.60
2022-11-17T01:52:53.677Z,16.60
2022-11-17T01:55:21.925Z,16.60
2022-11-17T01:57:57.566Z,16.60
2022-11-17T02:00:25.533Z,16.50
2022-11-17T02:02:53.248Z,16.50
2022-11-17T02:05:31.580Z,16.50
2022-11-17T02:08:01.139Z,16.50
2022-11-17T02:10:31.541Z,16.50
2022-11-17T02:13:00.552Z,16.50
2022-11-17T02:15:29.508Z,16.50
2022-11-17T02:17:57.247Z,16.50
2022-11-17T02:21:01.680Z,16.40
2022-11-17T02:23:56.785Z,16.40
2022-11-17T02:26:32.579Z,16.40
2022-11-17T02:29:06.140Z,16.40
2022-11-17T02:32:04.007Z,16.40
2022-11-17T02:34:45.795Z,16.40
2022-11-17T02:37:48.937Z,16.40
2022-11-17T02:40:39.824Z,16.30
2022-11-17T02:43:32.961Z,16.30
2022-11-17T02:46:05.359Z,16.30
2022-11-17T02:48:39.089Z,16.40
2022-11-17T02:51:10.414Z,16.30
2022-11-17T02:53:38.733Z,16.30
2022-11-17T02:56:07.158Z,16.30
2022-11-17T02:58:34.247Z,16.40
2022-11-17T03:01:37.003Z,16.40
2022-11-17T03:04:31.409Z,16.40
2022-11-17T03:07:29.248Z,16.40
2022-11-17T03:10:06.312Z,16.50
2022-11-17T03:12:51.271Z,16.50
2022-11-17T03:15:40.493Z,16.50
2022-11-17T03:18:15.836Z,16.50
2022-11-17T03:21:16.535Z,16.60
2022-11-17T03:23:52.426Z,16.50
2022-11-17T03:26:26.286Z,16.50
2022-11-17T03:28:54.738Z,16.60
2022-11-17T03:31:24.357Z,16.60
2022-11-17T03:33:52.913Z,16.60
2022-11-17T03:36:32.624Z,16.60
2022-11-17T03:39:09.056Z,16.60
2022-11-17T03:41:40.972Z,16.60
2022-11-17T03:44:08.055Z,16.60
2022-11-17T03:46:38.999Z,16.60
2022-11-17T03:49:11.420Z,16.70
2022-11-17T03:51:38.417Z,16.60
2022-11-17T03:54:06.708Z,16.70
2022-11-17T03:57:02.327Z,16.70
2022-11-17T03:59:44.395Z,16.70
2022-11-17T04:02:18.686Z,16.70
2022-11-17T04:05:04.515Z,16.80
2022-11-17T04:07:34.534Z,16.80
2022-11-17T04:10:01.536Z,16.80
2022-11-17T04:12:47.087Z,16.80
2022-11-17T04:15:32.563Z,16.80
2022-11-17T04:17:59.816Z,16.90
2022-11-17T04:20:26.650Z,16.90
2022-11-17T04:23:08.715Z,16.90
2022-11-17T04:26:02.155Z,16.90
2022-11-17T04:28:37.261Z,16.90
2022-11-17T04:31:10.189Z,16.90
2022-11-17T04:33:38.642Z,16.90
2022-11-17T04:36:06.411Z,16.90
2022-11-17T04:38:33.394Z,16.90
2022-11-17T04:41:27.109Z,16.90
2022-11-17T04:43:54.192Z,16.90
2022-11-17T04:46:22.159Z,16.90
2022-11-17T04:48:49.301Z,16.90
2022-11-17T04:51:17.061Z,16.90
2022-11-17T04:53:45.042Z,16.90
2022-11-17T04:56:13.157Z,16.90
2022-11-17T04:58:40.801Z,16.80
2022-11-17T05:01:14.487Z,16.80
2022-11-17T05:04:11.281Z,16.80
2022-11-17T05:06:41.575Z,16.80
2022-11-17T05:09:11.802Z,16.80
2022-11-17T05:11:57.109Z,16.80
2022-11-17T05:14:26.024Z,16.80
2022-11-17T05:17:10.384Z,16.70
2022-11-17T05:19:37.980Z,16.70
2022-11-17T05:22:24.990Z,16.70
2022-11-17T05:24:52.965Z,16.70
2022-11-17T05:27:21.001Z,16.70
2022-11-17T05:29:47.918Z,16.70
2022-11-17T05:32:15.229Z,16.60
2022-11-17T05:34:42.139Z,16.70
2022-11-17T05:37:08.921Z,16.70
2022-11-17T05:39:35.723Z,16.70
2022-11-17T05:42:02.581Z,16.70
2022-11-17T05:44:29.472Z,16.60
2022-11-17T05:46:56.265Z,16.60
2022-11-17T05:49:24.062Z,16.60
2022-11-17T05:51:52.854Z,16.60
2022-11-17T05:54:20.212Z,16.60
2022-11-17T05:56:52.790Z,16.60
2022-11-17T05:59:28.043Z,16.60
2022-11-17T06:02:15.305Z,16.60
2022-11-17T06:04:43.358Z,16.60
2022-11-17T06:07:10.661Z,16.60
2022-11-17T06:09:41.438Z,16.60
2022-11-17T06:12:09.143Z,16.60
2022-11-17T06:14:37.658Z,16.60
2022-11-17T06:17:09.455Z,16.60
2022-11-17T06:19:43.737Z,16.60
2022-11-17T06:22:12.799Z,16.60
2022-11-17T06:24:43.175Z,16.70
2022-11-17T06:27:11.994Z,16.70
2022-11-17T06:29:44.000Z,16.70
2022-11-17T06:32:18.346Z,16.70
2022-11-17T06:34:54.855Z,16.70
2022-11-17T06:37:23.706Z,16.70
2022-11-17T06:39:50.638Z,16.70
2022-11-17T06:42:17.404Z,16.70
2022-11-17T06:44:44.163Z,16.70
2022-11-17T06:47:10.932Z,16.70
2022-11-17T06:49:38.084Z,16.70
2022-11-17T06:52:04.919Z,16.70
2022-11-17T06:54:31.712Z,16.70
2022-11-17T06:56:58.677Z,16.70
2022-11-17T06:59:25.551Z,16.80
2022-11-17T07:01:52.486Z,16.80
2022-11-17T07:04:19.286Z,16.70
2022-11-17T07:06:46.198Z,16.80
2022-11-17T07:09:13.015Z,16.80
2022-11-17T07:11:39.789Z,16.80
2022-11-17T07:14:06.596Z,16.80
2022-11-17T07:16:33.413Z,16.70
2022-11-17T07:19:03.333Z,16.80
2022-11-17T07:21:30.194Z,16.80
2022-11-17T07:23:57.125Z,16.80
2022-11-17T07:26:23.905Z,16.80
2022-11-17T07:28:50.693Z,16.80
2022-11-17T07:31:17.624Z,16.80
2022-11-17T07:33:44.425Z,16.80
2022-11-17T07:36:14.548Z,16.80
2022-11-17T07:38:41.438Z,16.80
2022-11-17T07:41:09.920Z,16.80
2022-11-17T07:43:37.006Z,16.80
2022-11-17T07:46:14.956Z,16.90
2022-11-17T07:48:43.547Z,16.90
2022-11-17T07:51:10.791Z,16.80
2022-11-17T07:53:37.634Z,16.90
2022-11-17T07:56:05.000Z,16.90
2022-11-17T07:58:32.154Z,16.90
2022-11-17T08:01:00.307Z,16.90
2022-11-17T08:03:27.573Z,16.90
2022-11-17T08:05:54.436Z,16.90
2022-11-17T08:08:21.439Z,16.90
2022-11-17T08:10:48.219Z,16.90
2022-11-17T08:13:15.872Z,16.90
2022-11-17T08:15:42.734Z,16.90
2022-11-17T08:18:09.528Z,16.90
2022-11-17T08:20:36.406Z,17.00
2022-11-17T08:23:03.245Z,17.00
2022-11-17T08:25:30.063Z,17.00
2022-11-17T08:27:58.427Z,17.00
2022-11-17T08:30:26.489Z,17.00
2022-11-17T08:32:54.432Z,17.00
2022-11-17T08:35:24.276Z,17.00
2022-11-17T08:37:51.615Z,17.00
2022-11-17T08:40:19.338Z,17.00
2022-11-17T08:42:46.927Z,17.00
2022-11-17T08:45:14.046Z,17.00
2022-11-17T08:47:41.092Z,17.00
2022-11-17T08:50:08.631Z,17.00
2022-11-17T08:52:35.603Z,17.00
2022-11-17T08:55:02.700Z,17.00
2022-11-17T08:57:30.658Z,17.00
2022-11-17T08:59:57.968Z,17.00
2022-11-17T09:02:26.165Z,17.00
2022-11-17T09:04:52.943Z,17.00
2022-11-17T09:07:19.832Z,17.00
2022-11-17T09:09:46.836Z,17.00
2022-11-17T09:12:13.724Z,17.00
2022-11-17T09:14:40.508Z,17.00
2022-11-17T09:17:07.490Z,17.00
2022-11-17T09:19:34.286Z,17.00
2022-11-17T09:22:01.085Z,16.90
2022-11-17T09:24:27.970Z,16.90
2022-11-17T09:26:57.238Z,16.90
2022-11-17T09:29:24.065Z,17.00
2022-11-17T09:31:50.941Z,16.90
2022-11-17T09:34:17.985Z,16.90
2022-11-17T09:36:44.891Z,17.00
2022-11-17T09:39:11.850Z,17.00
2022-11-17T09:41:46.282Z,17.00
2022-11-17T09:44:31.159Z,17.00
2022-11-17T09:47:09.968Z,17.00
2022-11-17T09:49:58.062Z,17.10
2022-11-17T09:52:34.867Z,17.10
2022-11-17T09:55:17.071Z,17.10
2022-11-17T09:57:49.308Z,17.10
2022-11-17T10:00:21.408Z,17.10
2022-11-17T10:02:50.702Z,17.10
2022-11-17T10:05:30.421Z,17.20
2022-11-17T10:08:03.580Z,17.20
2022-11-17T10:10:39.113Z,17.20
2022-11-17T10:13:17.507Z,17.20
2022-11-17T10:15:50.666Z,17.20
2022-11-17T10:18:18.002Z,17.20
2022-11-17T10:20:45.312Z,17.20
2022-11-17T10:23:18.639Z,17.20
2022-11-17T10:25:47.824Z,17.20
2022-11-17T10:28:30.590Z,17.20
2022-11-17T10:31:12.005Z,17.20
2022-11-17T10:33:47.723Z,17.20
2022-11-17T10:36:17.742Z,17.20
2022-11-17T10:38:51.984Z,17.20
2022-11-17T10:41:28.404Z,17.20
2022-11-17T10:44:24.507Z,17.10
2022-11-17T10:47:04.158Z,17.20
2022-11-17T10:49:34.787Z,17.20
2022-11-17T10:52:18.581Z,17.20
2022-11-17T10:54:45.530Z,17.20
2022-11-17T10:57:19.962Z,17.20
2022-11-17T10:59:56.216Z,17.20
2022-11-17T11:02:36.237Z,17.20
2022-11-17T11:05:10.850Z,17.20
2022-11-17T11:07:38.621Z,17.20
2022-11-17T11:10:23.982Z,17.20
2022-11-17T11:13:11.244Z,17.20
2022-11-17T11:15:38.654Z,17.20
2022-11-17T11:18:13.716Z,17.20
2022-11-17T11:20:57.202Z,17.20
2022-11-17T11:23:51.772Z,17.20
2022-11-17T11:26:37.947Z,17.20
2022-11-17T11:29:13.988Z,17.20
2022-11-17T11:32:13.401Z,17.20
2022-11-17T11:35:03.991Z,17.20
2022-11-17T11:37:40.864Z,17.20
2022-11-17T11:40:51.184Z,17.20
2022-11-17T11:43:48.073Z,17.20
2022-11-17T11:46:40.387Z,17.30
2022-11-17T11:49:22.598Z,17.30
2022-11-17T11:51:51.377Z,17.30
2022-11-17T11:54:40.203Z,17.30
2022-11-17T11:57:13.845Z,17.20
2022-11-17T11:59:52.407Z,17.20
2022-11-17T12:02:48.020Z,17.20
2022-11-17T12:05:30.331Z,17.20
2022-11-17T12:08:34.830Z,17.20
2022-11-17T12:11:32.174Z,17.20
2022-11-17T12:14:00.197Z,17.20
2022-11-17T12:16:36.701Z,17.30
2022-11-17T12:19:42.459Z,17.30
2022-11-17T12:22:28.305Z,17.20
2022-11-17T12:25:03.557Z,17.30
2022-11-17T12:27:36.324Z,17.30
2022-11-17T12:30:05.729Z,17.30
2022-11-17T12:32:44.881Z,17.30
2022-11-17T12:35:26.209Z,17.30
2022-11-17T12:38:15.280Z,17.30
2022-11-17T12:40:52.678Z,17.20
2022-11-17T12:43:20.699Z,17.20
2022-11-17T12:45:53.609Z,17.20
2022-11-17T12:48:37.802Z,17.20
2022-11-17T12:51:14.106Z,17.20
2022-11-17T12:54:01.306Z,17.20
2022-11-17T12:56:35.623Z,17.20
2022-11-17T12:59:28.274Z,17.10
2022-11-17T13:02:08.490Z,17.10
2022-11-17T13:05:05.417Z,17.10
2022-11-17T13:07:32.257Z,17.10
2022-11-17T13:10:00.156Z,17.10
2022-11-17T13:12:29.944Z,17.10
2022-11-17T13:14:58.928Z,17.00
2022-11-17T13:17:33.430Z,17.00
2022-11-17T13:20:19.096Z,17.00
2022-11-17T13:23:04.399Z,17.00
2022-11-17T13:25:31.204Z,17.00
2022-11-17T13:28:04.412Z,17.00
2022-11-17T13:30:32.970Z,17.00
2022-11-17T13:33:02.585Z,17.00
2022-11-17T13:35:31.796Z,17.00
2022-11-17T13:38:24.236Z,16.90
2022-11-17T13:40:53.513Z,16.90
2022-11-17T13:43:23.161Z,16.90
2022-11-17T13:45:51.426Z,16.90
2022-11-17T13:48:38.882Z,16.90
2022-11-17T13:51:16.027Z,16.90
2022-11-17T13:53:45.164Z,16.90
2022-11-17T13:56:28.199Z,16.90
2022-11-17T13:58:55.691Z,16.90
2022-11-17T14:01:25.587Z,16.90
2022-11-17T14:03:52.693Z,16.90
2022-11-17T14:06:19.667Z,16.90
2022-11-17T14:09:03.596Z,17.00
2022-11-17T14:11:30.557Z,16.90
2022-11-17T14:13:58.984Z,17.00
2022-11-17T14:16:27.432Z,17.00
2022-11-17T14:19:23.110Z,17.00
2022-11-17T14:22:03.671Z,17.00
2022-11-17T14:24:32.243Z,17.00
2022-11-17T14:26:59.456Z,17.00
2022-11-17T14:29:29.891Z,17.00
2022-11-17T14:31:57.150Z,17.00
2022-11-17T14:34:24.320Z,17.00
2022-11-17T14:36:54.837Z,17.00
2022-11-17T14:39:22.064Z,17.00
2022-11-17T14:41:50.751Z,17.00
2022-11-17T14:44:17.638Z,17.00
2022-11-17T14:46:44.447Z,17.00
2022-11-17T14:49:11.255Z,17.00
2022-11-17T14:51:38.274Z,17.00
2022-11-17T14:54:05.296Z,17.00
2022-11-17T14:56:32.268Z,17.00
2022-11-17T14:58:59.860Z,17.00
2022-11-17T15:01:32.475Z,16.90
2022-11-17T15:04:20.714Z,16.90
2022-11-17T15:06:50.564Z,16.90
2022-11-17T15:09:17.518Z,16.90
2022-11-17T15:11:44.286Z,16.90
2022-11-17T15:14:11.283Z,16.90
2022-11-17T15:16:38.341Z,16.90
2022-11-17T15:19:05.203Z,16.90
2022-11-17T15:21:31.997Z,16.80
2022-11-17T15:23:58.973Z,16.80
2022-11-17T15:26:25.788Z,16.80
2022-11-17T15:28:52.624Z,16.80
2022-11-17T15:31:20.490Z,16.70
2022-11-17T15:33:48.563Z,16.70
2022-11-17T15:36:17.497Z,16.70
2022-11-17T15:38:45.127Z,16.70
2022-11-17T15:41:13.365Z,16.70
2022-11-17T15:43:42.068Z,16.60
2022-11-17T15:46:11.323Z,16.60
2022-11-17T15:48:42.202Z,16.60
2022-11-17T15:51:14.584Z,16.60
2022-11-17T15:53:42.550Z,16.50
2022-11-17T15:56:13.643Z,16.50
2022-11-17T15:58:42.262Z,16.50
2022-11-17T16:01:15.120Z,16.40
2022-11-17T16:03:44.351Z,16.30
2022-11-17T16:06:12.718Z,16.30
2022-11-17T16:08:40.010Z,16.30
2022-11-17T16:11:09.275Z,16.20
2022-11-17T16:13:36.382Z,16.20
2022-11-17T16:16:04.022Z,16.20
2022-11-17T16:18:34.597Z,16.10
2022-11-17T16:21:07.366Z,16.10
2022-11-17T16:23:43.307Z,16.10
2022-11-17T16:26:11.814Z,16.00
2022-11-17T16:28:39.235Z,16.00
2022-11-17T16:31:15.236Z,16.00
2022-11-17T16:33:50.945Z,16.00
2022-11-17T16:36:18.487Z,16.00
2022-11-17T16:39:02.261Z,16.00
2022-11-17T16:41:32.723Z,16.00
2022-11-17T16:44:00.236Z,16.00
2022-11-17T16:46:29.611Z,15.90
2022-11-17T16:49:00.623Z,16.00
2022-11-17T16:51:27.484Z,15.90
2022-11-17T16:53:59.853Z,15.90
2022-11-17T16:56:27.354Z,15.90
2022-11-17T16:58:54.779Z,15.90
2022-11-17T17:01:24.358Z,15.90
2022-11-17T17:03:58.903Z,15.90
2022-11-17T17:06:26.274Z,15.90
2022-11-17T17:09:05.307Z,15.90
2022-11-17T17:11:33.345Z,15.90
2022-11-17T17:14:03.256Z,15.90
2022-11-17T17:16:31.602Z,15.90
2022-11-17T17:19:04.382Z,15.90
2022-11-17T17:21:32.482Z,15.90
2022-11-17T17:23:59.599Z,15.90
2022-11-17T17:26:28.519Z,15.90
2022-11-17T17:28:58.160Z,15.90
2022-11-17T17:31:29.178Z,15.80
2022-11-17T17:33:56.034Z,15.80
2022-11-17T17:36:24.655Z,15.70
2022-11-17T17:38:56.272Z,15.70
2022-11-17T17:41:29.229Z,15.70
2022-11-17T17:43:59.169Z,15.70
2022-11-17T17:46:26.935Z,15.60
2022-11-17T17:48:54.428Z,15.60
2022-11-17T17:51:24.718Z,15.60
2022-11-17T17:53:56.117Z,15.60
2022-11-17T17:56:23.586Z,15.60
2022-11-17T17:58:51.685Z,15.60
2022-11-17T18:01:22.979Z,15.60
2022-11-17T18:03:51.421Z,15.60
2022-11-17T18:06:20.262Z,15.70
2022-11-17T18:08:47.786Z,15.70
2022-11-17T18:11:20.155Z,15.70
2022-11-17T18:13:51.977Z,15.70
2022-11-17T18:16:23.496Z,15.70
2022-11-17T18:18:58.184Z,15.70
2022-11-17T18:21:25.901Z,15.70
2022-11-17T18:23:53.535Z,15.70
2022-11-17T18:26:22.977Z,15.80
2022-11-17T18:29:01.038Z,15.70
2022-11-17T18:31:31.038Z,15.70
2022-11-17T18:34:00.438Z,15.80
2022-11-17T18:36:28.681Z,15.70
2022-11-17T18:38:57.554Z,15.70
2022-11-17T18:41:25.886Z,15.70
2022-11-17T18:43:53.046Z,15.70
2022-11-17T18:46:22.132Z,15.70
2022-11-17T18:48:53.739Z,15.70
2022-11-17T18:51:22.689Z,15.70
2022-11-17T18:53:54.658Z,15.70
2022-11-17T18:56:23.903Z,15.60
2022-11-17T18:58:51.495Z,15.60
2022-11-17T19:01:23.693Z,15.70
2022-11-17T19:03:53.437Z,15.70
2022-11-17T19:06:22.214Z,15.60
2022-11-17T19:08:49.992Z,15.60
2022-11-17T19:11:18.663Z,15.60
2022-11-17T19:13:46.624Z,15.50
2022-11-17T19:16:25.411Z,15.60
2022-11-17T19:18:54.619Z,15.50
2022-11-17T19:21:25.867Z,15.50
2022-11-17T19:23:54.047Z,15.50
2022-11-17T19:26:23.212Z,15.50
2022-11-17T19:28:50.725Z,15.50
2022-11-17T19:31:20.555Z,15.50
2022-11-17T19:33:48.980Z,15.50
2022-11-17T19:36:24.521Z,15.40
2022-11-17T19:38:53.431Z,15.40
2022-11-17T19:41:34.946Z,15.40
2022-11-17T19:44:04.425Z,15.40
2022-11-17T19:46:32.033Z,15.40
2022-11-17T19:48:59.303Z,15.40
2022-11-17T19:51:31.714Z,15.40
2022-11-17T19:54:03.601Z,15.40
2022-11-17T19:56:31.420Z,15.40
2022-11-17T19:58:58.421Z,15.40
2022-11-17T20:01:27.675Z,15.40
2022-11-17T20:03:56.094Z,15.40
2022-11-17T20:06:27.300Z,15.30
2022-11-17T20:08:55.211Z,15.40
2022-11-17T20:11:28.190Z,15.40
2022-11-17T20:13:55.770Z,15.40
2022-11-17T20:16:25.061Z,15.40
2022-11-17T20:18:54.936Z,15.40
2022-11-17T20:21:21.835Z,15.30
2022-11-17T20:23:49.229Z,15.30
2022-11-17T20:26:25.510Z,15.30
2022-11-17T20:28:52.993Z,15.30
2022-11-17T20:31:22.535Z,15.20
2022-11-17T20:33:49.339Z,15.20
2022-11-17T20:36:19.476Z,15.20
2022-11-17T20:38:51.103Z,15.20
2022-11-17T20:41:20.751Z,15.10
2022-11-17T20:43:49.181Z,15.10
2022-11-17T20:46:16.135Z,15.10
2022-11-17T20:48:43.775Z,15.10
2022-11-17T20:51:16.197Z,15.10
2022-11-17T20:53:44.408Z,15.10
2022-11-17T20:56:13.175Z,15.00
2022-11-17T20:58:40.210Z,15.00
2022-11-17T21:01:15.326Z,15.00
2022-11-17T21:03:42.499Z,15.00
2022-11-17T21:06:10.184Z,15.00
2022-11-17T21:08:39.522Z,15.00
2022-11-17T21:11:09.180Z,15.00
2022-11-17T21:13:37.741Z,15.00
2022-11-17T21:16:13.872Z,14.90
2022-11-17T21:18:46.764Z,15.00
2022-11-17T21:21:14.028Z,14.90
2022-11-17T21:23:41.817Z,14.90
2022-11-17T21:26:19.248Z,14.90
2022-11-17T21:28:46.887Z,14.90
2022-11-17T21:31:19.317Z,14.90
2022-11-17T21:33:46.964Z,14.80
2022-11-17T21:36:16.004Z,14.80
2022-11-17T21:38:44.488Z,14.80
2022-11-17T21:41:15.517Z,14.80
2022-11-17T21:43:43.954Z,14.80
2022-11-17T21:46:14.549Z,14.80
2022-11-17T21:48:42.180Z,14.80
2022-11-17T21:51:34.917Z,14.80
2022-11-17T21:54:04.339Z,14.80
2022-11-17T21:56:32.017Z,14.80
2022-11-17T21:59:09.861Z,14.80
2022-11-17T22:01:38.564Z,14.80
2022-11-17T22:04:05.424Z,14.80
2022-11-17T22:06:32.264Z,14.80
2022-11-17T22:08:59.801Z,14.80
2022-11-17T22:11:37.616Z,14.80
2022-11-17T22:14:12.233Z,14.80
2022-11-17T22:16:41.215Z,14.90
2022-11-17T22:19:09.678Z,14.90
2022-11-17T22:21:37.500Z,14.90
2022-11-17T22:24:05.999Z,14.90
2022-11-17T22:26:35.757Z,14.90
2022-11-17T22:29:02.768Z,14.90
2022-11-17T22:31:29.545Z,15.00
2022-11-17T22:33:56.366Z,15.00
2022-11-17T22:36:23.371Z,15.00
2022-11-17T22:38:52.029Z,15.00
2022-11-17T22:41:20.845Z,15.00
2022-11-17T22:43:55.917Z,15.00
2022-11-17T22:46:26.733Z,15.00
2022-11-17T22:48:54.059Z,15.00
2022-11-17T22:51:40.087Z,15.00
2022-11-17T22:54:07.996Z,15.00
2022-11-17T22:56:35.357Z,15.00
2022-11-17T22:59:02.171Z,15.00
2022-11-17T23:01:29.209Z,15.00
2022-11-17T23:03:56.046Z,15.00
2022-11-17T23:06:24.176Z,15.00
2022-11-17T23:08:51.234Z,15.00
2022-11-17T23:14:10.610Z,15.00
2022-11-17T23:16:38.230Z,15.00
2022-11-17T23:19:05.862Z,15.00
2022-11-17T23:21:32.955Z,15.00
2022-11-17T23:23:59.860Z,14.90
2022-11-17T23:26:26.904Z,14.90
2022-11-17T23:28:53.729Z,14.90
2022-11-17T23:31:20.832Z,14.90
2022-11-17T23:33:48.200Z,14.90
2022-11-17T23:36:17.358Z,14.90
2022-11-17T23:38:44.515Z,14.90
2022-11-17T23:41:14.576Z,14.90
2022-11-17T23:43:41.628Z,14.80
2022-11-17T23:46:12.134Z,14.80
2022-11-17T23:48:39.466Z,14.80
2022-11-17T23:51:08.204Z,14.80
2022-11-17T23:53:35.123Z,14.80
2022-11-17T23:56:02.847Z,14.80
2022-11-17T23:58:30.077Z,14.80
